地図

経路データ

SID SEASON NUMBER BASIN SUBBASIN NAME ISO_TIME NATURE LAT LON WMO_WIND WMO_PRES WMO_AGENCY TRACK_TYPE DIST2LAND LANDFALL IFLAG USA_AGENCY USA_ATCF_ID USA_LAT USA_LON USA_RECORD USA_STATUS USA_WIND USA_PRES USA_SSHS USA_R34_NE USA_R34_SE USA_R34_SW USA_R34_NW USA_R50_NE USA_R50_SE USA_R50_SW USA_R50_NW USA_R64_NE USA_R64_SE USA_R64_SW USA_R64_NW USA_POCI USA_ROCI USA_RMW USA_EYE TOKYO_LAT TOKYO_LON TOKYO_GRADE TOKYO_WIND TOKYO_PRES TOKYO_R50_DIR TOKYO_R50_LONG TOKYO_R50_SHORT TOKYO_R30_DIR TOKYO_R30_LONG TOKYO_R30_SHORT TOKYO_LAND CMA_LAT CMA_LON CMA_CAT CMA_WIND CMA_PRES HKO_LAT HKO_LON HKO_CAT HKO_WIND HKO_PRES NEWDELHI_LAT NEWDELHI_LON NEWDELHI_GRADE NEWDELHI_WIND NEWDELHI_PRES NEWDELHI_CI NEWDELHI_DP NEWDELHI_POCI REUNION_LAT REUNION_LON REUNION_TYPE REUNION_WIND REUNION_PRES REUNION_TNUM REUNION_CI REUNION_RMW REUNION_R34_NE REUNION_R34_SE REUNION_R34_SW REUNION_R34_NW REUNION_R50_NE REUNION_R50_SE REUNION_R50_SW REUNION_R50_NW REUNION_R64_NE REUNION_R64_SE REUNION_R64_SW REUNION_R64_NW BOM_LAT BOM_LON BOM_TYPE BOM_WIND BOM_PRES BOM_TNUM BOM_CI BOM_RMW BOM_R34_NE BOM_R34_SE BOM_R34_SW BOM_R34_NW BOM_R50_NE BOM_R50_SE BOM_R50_SW BOM_R50_NW BOM_R64_NE BOM_R64_SE BOM_R64_SW BOM_R64_NW BOM_ROCI BOM_POCI BOM_EYE BOM_POS_METHOD BOM_PRES_METHOD NADI_LAT NADI_LON NADI_CAT NADI_WIND NADI_PRES WELLINGTON_LAT WELLINGTON_LON WELLINGTON_WIND WELLINGTON_PRES DS824_LAT DS824_LON DS824_STAGE DS824_WIND DS824_PRES TD9636_LAT TD9636_LON TD9636_STAGE TD9636_WIND TD9636_PRES TD9635_LAT TD9635_LON TD9635_WIND TD9635_PRES TD9635_ROCI NEUMANN_LAT NEUMANN_LON NEUMANN_CLASS NEUMANN_WIND NEUMANN_PRES MLC_LAT MLC_LON MLC_CLASS MLC_WIND MLC_PRES USA_GUST BOM_GUST BOM_GUST_PER REUNION_GUST REUNION_GUST_PER USA_SEAHGT USA_SEARAD_NE USA_SEARAD_SE USA_SEARAD_SW USA_SEARAD_NW STORM_SPEED STORM_DIR
1923211N14140 1923 45 WP MM NOT_NAMED 1923-07-29 22:00:00 NR 13.8000 139.800 main 1553 1521 __________O___ -1 13.8000 139.800 2 8 272
1923211N14140 1923 45 WP MM NOT_NAMED 1923-07-30 00:00:00 NR 13.8116 139.524 main 1521 1478 __________P___ -1 13.8116 139.524 2 8 273
1923211N14140 1923 45 WP MM NOT_NAMED 1923-07-30 03:00:00 NR 13.8307 139.108 main 1478 1438 __________P___ -1 13.8307 139.108 2 8 273
1923211N14140 1923 45 WP MM NOT_NAMED 1923-07-30 06:00:00 NR 13.8547 138.684 main 1438 1385 __________P___ -1 13.8547 138.684 2 8 274
1923211N14140 1923 45 WP MM NOT_NAMED 1923-07-30 09:00:00 NR 13.8869 138.248 main 1385 1375 __________P___ -1 13.8869 138.248 2 9 275
1923211N14140 1923 45 WP MM NOT_NAMED 1923-07-30 10:00:00 NR 13.9000 138.100 main 1375 1343 __________O___ -1 13.9000 138.100 2 9 276
1923211N14140 1923 45 WP MM NOT_NAMED 1923-07-30 12:00:00 NR 13.9301 137.797 main 1343 1293 __________P___ -1 13.9301 137.797 2 9 276
1923211N14140 1923 45 WP MM NOT_NAMED 1923-07-30 15:00:00 NR 13.9817 137.331 main 1293 1251 __________P___ -1 13.9817 137.331 2 9 277
1923211N14140 1923 45 WP MM NOT_NAMED 1923-07-30 18:00:00 NR 14.0355 136.852 main 1251 1199 __________P___ -1 14.0355 136.852 2 9 276
1923211N14140 1923 45 WP MM NOT_NAMED 1923-07-30 21:00:00 NR 14.0853 136.364 main 1199 1178 __________P___ -1 14.0853 136.364 2 10 276
1923211N14140 1923 45 WP MM NOT_NAMED 1923-07-30 22:00:00 NR 14.1000 136.200 main 1178 1146 __________O___ -1 14.1000 136.200 2 10 274
1923211N14140 1923 45 WP MM NOT_NAMED 1923-07-31 00:00:00 NR 14.1223 135.867 main 1146 1093 __________P___ -1 14.1223 135.867 2 10 273
1923211N14140 1923 45 WP MM NOT_NAMED 1923-07-31 03:00:00 NR 14.1495 135.361 main 1093 1042 __________P___ -1 14.1495 135.361 2 10 273
1923211N14140 1923 45 WP MM NOT_NAMED 1923-07-31 06:00:00 NR 14.1720 134.856 main 1042 989 __________P___ -1 14.1720 134.856 2 10 273
1923211N14140 1923 45 WP MM NOT_NAMED 1923-07-31 09:00:00 NR 14.1928 134.361 main 989 968 __________P___ -1 14.1928 134.361 2 10 273
1923211N14140 1923 45 WP MM NOT_NAMED 1923-07-31 10:00:00 NR 14.2000 134.200 main 968 936 __________O___ -1 14.2000 134.200 2 9 273
1923211N14140 1923 45 WP MM NOT_NAMED 1923-07-31 12:00:00 NR 14.2162 133.899 main 936 894 __________P___ -1 14.2162 133.899 2 9 273
1923211N14140 1923 45 WP MM NOT_NAMED 1923-07-31 15:00:00 NR 14.2408 133.460 main 894 845 __________P___ -1 14.2408 133.460 2 9 273
1923211N14140 1923 45 WP MM NOT_NAMED 1923-07-31 18:00:00 NR 14.2659 133.021 main 845 803 __________P___ -1 14.2659 133.021 2 9 273
1923211N14140 1923 45 WP MM NOT_NAMED 1923-07-31 21:00:00 NR 14.2914 132.561 main 803 783 __________P___ -1 14.2914 132.561 2 9 273
1923211N14140 1923 45 WP MM NOT_NAMED 1923-07-31 22:00:00 NR 14.3000 132.400 main 783 742 __________O___ -1 14.3000 132.400 2 10 272
1923211N14140 1923 45 WP MM NOT_NAMED 1923-08-01 00:00:00 NR 14.3089 132.046 main 742 690 __________P___ -1 14.3089 132.046 2 11 271
1923211N14140 1923 45 WP MM NOT_NAMED 1923-08-01 03:00:00 NR 14.3221 131.488 main 690 630 __________P___ -1 14.3221 131.488 2 11 272
1923211N14140 1923 45 WP MM NOT_NAMED 1923-08-01 06:00:00 NR 14.3432 130.923 main 630 584 __________P___ -1 14.3432 130.923 2 11 273
1923211N14140 1923 45 WP MM NOT_NAMED 1923-08-01 09:00:00 NR 14.3817 130.375 main 584 565 __________P___ -1 14.3817 130.375 2 11 275
1923211N14140 1923 45 WP MM NOT_NAMED 1923-08-01 10:00:00 NR 14.4000 130.200 main 565 536 __________O___ -1 14.4000 130.200 2 10 277
1923211N14140 1923 45 WP MM NOT_NAMED 1923-08-01 12:00:00 NR 14.4412 129.880 main 536 494 __________P___ -1 14.4412 129.880 2 9 279
1923211N14140 1923 45 WP MM NOT_NAMED 1923-08-01 15:00:00 NR 14.5221 129.425 main 494 464 __________P___ -1 14.5221 129.425 2 9 282
1923211N14140 1923 45 WP MM NOT_NAMED 1923-08-01 18:00:00 NR 14.6260 128.986 main 464 435 __________P___ -1 14.6260 128.986 2 9 285
1923211N14140 1923 45 WP MM NOT_NAMED 1923-08-01 21:00:00 NR 14.7527 128.548 main 435 427 __________P___ -1 14.7527 128.548 2 9 287
1923211N14140 1923 45 WP MM NOT_NAMED 1923-08-01 22:00:00 NR 14.8000 128.400 main 427 412 __________O___ -1 14.8000 128.400 3 10 287
1923211N14140 1923 45 WP MM NOT_NAMED 1923-08-02 00:00:00 NR 14.8917 128.079 main 412 366 __________P___ -1 14.8917 128.079 3 10 288
1923211N14140 1923 45 WP MM NOT_NAMED 1923-08-02 03:00:00 NR 15.0480 127.590 main 366 325 __________P___ -1 15.0480 127.590 3 10 290
1923211N14140 1923 45 WP MM NOT_NAMED 1923-08-02 06:00:00 NR 15.2267 127.107 main 325 290 __________P___ -1 15.2267 127.107 3 10 293
1923211N14140 1923 45 WP MM NOT_NAMED 1923-08-02 09:00:00 NR 15.4279 126.646 main 290 288 __________P___ -1 15.4279 126.646 3 10 295
1923211N14140 1923 45 WP MM NOT_NAMED 1923-08-02 10:00:00 NR 15.5000 126.500 main 288 271 __________O___ -1 15.5000 126.500 4 9 298
1923211N14140 1923 45 WP MM NOT_NAMED 1923-08-02 12:00:00 NR 15.6466 126.227 main 271 264 __________P___ -1 15.6466 126.227 4 9 301
1923211N14140 1923 45 WP MM NOT_NAMED 1923-08-02 15:00:00 NR 15.8856 125.843 main 266 263 __________P___ -1 15.8856 125.843 4 9 304
1923211N14140 1923 45 WP MM NOT_NAMED 1923-08-02 18:00:00 NR 16.1420 125.478 main 268 268 __________P___ -1 16.1420 125.478 4 9 307
1923211N14140 1923 45 WP MM NOT_NAMED 1923-08-02 21:00:00 NR 16.4095 125.120 main 282 270 __________P___ -1 16.4095 125.120 4 9 308
1923211N14140 1923 45 WP MM NOT_NAMED 1923-08-02 22:00:00 NR 16.5000 125.000 main 270 235 __________O___ -1 16.5000 125.000 4 9 306
1923211N14140 1923 45 WP MM NOT_NAMED 1923-08-03 00:00:00 NR 16.6696 124.750 main 235 202 __________P___ -1 16.6696 124.750 4 9 306
1923211N14140 1923 45 WP MM NOT_NAMED 1923-08-03 03:00:00 NR 16.9303 124.374 main 202 161 __________P___ -1 16.9303 124.374 4 9 307
1923211N14140 1923 45 WP MM NOT_NAMED 1923-08-03 06:00:00 NR 17.2040 123.999 main 161 129 __________P___ -1 17.2040 123.999 4 9 308
1923211N14140 1923 45 WP MM NOT_NAMED 1923-08-03 09:00:00 NR 17.4970 123.625 main 129 121 __________P___ -1 17.4970 123.625 4 9 310
1923211N14140 1923 45 WP MM NOT_NAMED 1923-08-03 10:00:00 NR 17.6000 123.500 main 121 101 __________O___ -1 17.6000 123.500 4 10 312
1923211N14140 1923 45 WP MM NOT_NAMED 1923-08-03 12:00:00 NR 17.8239 123.247 main 101 64 __________P___ -1 17.8239 123.247 4 10 314
1923211N14140 1923 45 WP MM NOT_NAMED 1923-08-03 15:00:00 NR 18.1791 122.868 main 64 23 __________P___ -1 18.1791 122.868 4 10 315
1923211N14140 1923 45 WP MM NOT_NAMED 1923-08-03 18:00:00 NR 18.5406 122.492 main 23 24 __________P___ -1 18.5406 122.492 4 10 315
1923211N14140 1923 45 WP MM NOT_NAMED 1923-08-03 21:00:00 NR 18.8896 122.122 main 55 55 __________P___ -1 18.8896 122.122 4 10 315
1923211N14140 1923 45 WP MM NOT_NAMED 1923-08-03 22:00:00 NR 19.0000 122.000 main 67 67 __________O___ -1 19.0000 122.000 4 9 312
1923211N14140 1923 45 WP MM NOT_NAMED 1923-08-04 00:00:00 NR 19.1950 121.763 main 88 84 __________P___ -1 19.1950 121.763 4 9 310
1923211N14140 1923 45 WP MM NOT_NAMED 1923-08-04 03:00:00 NR 19.4686 121.414 main 111 109 __________P___ -1 19.4686 121.414 4 9 309
1923211N14140 1923 45 WP MM NOT_NAMED 1923-08-04 06:00:00 NR 19.7334 121.068 main 124 123 __________P___ -1 19.7334 121.068 4 8 309
1923211N14140 1923 45 WP MM NOT_NAMED 1923-08-04 09:00:00 NR 20.0052 120.718 main 156 156 __________P___ -1 20.0052 120.718 4 9 310
1923211N14140 1923 45 WP MM NOT_NAMED 1923-08-04 10:00:00 NR 20.1000 120.600 main 169 169 __________O___ -1 20.1000 120.600 4 9 312
1923211N14140 1923 45 WP MM NOT_NAMED 1923-08-04 12:00:00 NR 20.3130 120.356 main 181 158 __________P___ -1 20.3130 120.356 4 10 313
1923211N14140 1923 45 WP MM NOT_NAMED 1923-08-04 15:00:00 NR 20.6454 119.983 main 162 145 __________P___ -1 20.6454 119.983 4 10 313
1923211N14140 1923 45 WP MM NOT_NAMED 1923-08-04 18:00:00 NR 20.9793 119.605 main 151 151 __________P___ -1 20.9793 119.605 4 10 313
1923211N14140 1923 45 WP MM NOT_NAMED 1923-08-04 21:00:00 NR 21.2992 119.226 main 168 164 __________P___ -1 21.2992 119.226 4 10 312
1923211N14140 1923 45 WP MM NOT_NAMED 1923-08-04 22:00:00 NR 21.4000 119.100 main 174 174 __________O___ -1 21.4000 119.100 4 9 309
1923211N14140 1923 45 WP MM NOT_NAMED 1923-08-05 00:00:00 NR 21.5837 118.844 main 184 184 __________P___ -1 21.5837 118.844 4 9 307
1923211N14140 1923 45 WP MM NOT_NAMED 1923-08-05 03:00:00 NR 21.8404 118.461 main 201 186 __________P___ -1 21.8404 118.461 4 9 305
1923211N14140 1923 45 WP MM NOT_NAMED 1923-08-05 06:00:00 NR 22.0828 118.084 main 186 140 __________P___ -1 22.0828 118.084 4 8 305
1923211N14140 1923 45 WP MM NOT_NAMED 1923-08-05 09:00:00 NR 22.3203 117.718 main 140 125 __________P___ -1 22.3203 117.718 4 8 305
1923211N14140 1923 45 WP MM NOT_NAMED 1923-08-05 10:00:00 NR 22.4000 117.600 main 125 98 __________O___ -1 22.4000 117.600 4 8 311
1923211N14140 1923 45 WP MM NOT_NAMED 1923-08-05 12:00:00 NR 22.5683 117.410 main 98 62 __________P___ -1 22.5683 117.410 4 7 315
1923211N14140 1923 45 WP MM NOT_NAMED 1923-08-05 15:00:00 NR 22.8211 117.140 main 62 22 __________P___ -1 22.8211 117.140 4 7 314
1923211N14140 1923 45 WP MM NOT_NAMED 1923-08-05 18:00:00 NR 23.0723 116.839 main 22 0 __________P___ -1 23.0723 116.839 4 8 308
1923211N14140 1923 45 WP MM NOT_NAMED 1923-08-05 21:00:00 NR 23.3192 116.456 main 0 0 __________P___ -1 23.3192 116.456 4 9 303
1923211N14140 1923 45 WP MM NOT_NAMED 1923-08-05 22:00:00 NR 23.4000 116.300 main 0 0 __________O___ -1 23.4000 116.300 4 11 299
1923211N14140 1923 45 WP MM NOT_NAMED 1923-08-06 00:00:00 NR 23.5767 115.938 main 0 0 __________P___ -1 23.5767 115.938 4 12 295
1923211N14140 1923 45 WP MM NOT_NAMED 1923-08-06 03:00:00 NR 23.8356 115.301 main 0 0 __________P___ -1 23.8356 115.301 4 13 291
1923211N14140 1923 45 WP MM NOT_NAMED 1923-08-06 06:00:00 NR 24.0681 114.571 main 0 0 __________P___ -1 24.0681 114.571 4 15 287
1923211N14140 1923 45 WP MM NOT_NAMED 1923-08-06 09:00:00 NR 24.2527 113.776 main 0 0 __________P___ -1 24.2527 113.776 4 15 283
1923211N14140 1923 45 WP MM NOT_NAMED 1923-08-06 10:00:00 NR 24.3000 113.500 main 0 0 __________O___ -1 24.3000 113.500 7 15 279
1923211N14140 1923 45 WP MM NOT_NAMED 1923-08-06 12:00:00 NR 24.3705 112.938 main 0 0 __________P___ -1 24.3705 112.938 7 16 275
1923211N14140 1923 45 WP MM NOT_NAMED 1923-08-06 15:00:00 NR 24.4246 112.073 main 0 0 __________P___ -1 24.4246 112.073 7 16 272
1923211N14140 1923 45 WP MM NOT_NAMED 1923-08-06 18:00:00 NR 24.4321 111.191 main 0 0 __________P___ -1 24.4321 111.191 7 16 270
1923211N14140 1923 45 WP MM NOT_NAMED 1923-08-06 21:00:00 NR 24.4105 110.298 main 0 0 __________P___ -1 24.4105 110.298 7 16 268
1923211N14140 1923 45 WP MM NOT_NAMED 1923-08-06 22:00:00 NR 24.4000 110.000 main 0 __________O___ -1 24.4000 110.000 7 16 268

デジタル台風データ・検索

IBTrACS Databaseについて

本データベースは、米国NOAAが公開する1842年以降の世界の熱帯低気圧のベストトラックデータアーカイブInternational Best Track Archive for Climate Stewardship (IBTrACS)を、ウェブで閲覧しやすい形式に変換したものです。

最終更新日:2021-11-26